sensor_id;sensor_type;location;lat;lon;timestamp;P1;durP1;ratioP1;P2;durP2;ratioP2
49840;SDS011;35738;49.890;5.930;2022-12-29T00:01:58;2.30;;;2.10;;
49840;SDS011;35738;49.890;5.930;2022-12-29T00:04:24;2.13;;;2.03;;
49840;SDS011;35738;49.890;5.930;2022-12-29T00:06:51;3.25;;;1.85;;
49840;SDS011;35738;49.890;5.930;2022-12-29T00:09:19;2.85;;;2.28;;
49840;SDS011;35738;49.890;5.930;2022-12-29T00:11:45;2.22;;;2.03;;
49840;SDS011;35738;49.890;5.930;2022-12-29T00:14:12;2.80;;;2.47;;
49840;SDS011;35738;49.890;5.930;2022-12-29T00:16:57;3.05;;;2.38;;
49840;SDS011;35738;49.890;5.930;2022-12-29T00:19:24;2.70;;;2.50;;
49840;SDS011;35738;49.890;5.930;2022-12-29T00:22:10;6.25;;;2.65;;
49840;SDS011;35738;49.890;5.930;2022-12-29T00:24:56;2.95;;;2.47;;
49840;SDS011;35738;49.890;5.930;2022-12-29T00:27:43;4.95;;;2.97;;
49840;SDS011;35738;49.890;5.930;2022-12-29T00:30:33;2.95;;;2.75;;
49840;SDS011;35738;49.890;5.930;2022-12-29T00:33:20;2.83;;;2.63;;
49840;SDS011;35738;49.890;5.930;2022-12-29T00:38:35;3.50;;;3.15;;
49840;SDS011;35738;49.890;5.930;2022-12-29T00:41:24;3.10;;;2.80;;
49840;SDS011;35738;49.890;5.930;2022-12-29T00:44:09;5.00;;;3.50;;
49840;SDS011;35738;49.890;5.930;2022-12-29T00:46:38;5.18;;;3.10;;
49840;SDS011;35738;49.890;5.930;2022-12-29T00:49:07;6.13;;;3.38;;
49840;SDS011;35738;49.890;5.930;2022-12-29T00:51:54;4.35;;;3.63;;
49840;SDS011;35738;49.890;5.930;2022-12-29T00:54:22;5.25;;;3.47;;
49840;SDS011;35738;49.890;5.930;2022-12-29T00:56:49;9.10;;;3.67;;
49840;SDS011;35738;49.890;5.930;2022-12-29T00:59:17;5.32;;;3.75;;
49840;SDS011;35738;49.890;5.930;2022-12-29T01:01:45;4.70;;;3.00;;
49840;SDS011;35738;49.890;5.930;2022-12-29T01:04:13;5.25;;;3.17;;
49840;SDS011;35738;49.890;5.930;2022-12-29T01:06:40;6.43;;;3.30;;
49840;SDS011;35738;49.890;5.930;2022-12-29T01:09:08;3.03;;;2.83;;
49840;SDS011;35738;49.890;5.930;2022-12-29T01:11:54;4.10;;;2.95;;
49840;SDS011;35738;49.890;5.930;2022-12-29T01:14:21;4.78;;;3.13;;
49840;SDS011;35738;49.890;5.930;2022-12-29T01:16:49;5.68;;;3.67;;
49840;SDS011;35738;49.890;5.930;2022-12-29T01:19:16;6.78;;;3.72;;
49840;SDS011;35738;49.890;5.930;2022-12-29T01:21:43;5.35;;;4.15;;
49840;SDS011;35738;49.890;5.930;2022-12-29T01:24:10;9.45;;;4.07;;
49840;SDS011;35738;49.890;5.930;2022-12-29T01:26:37;7.88;;;4.53;;
49840;SDS011;35738;49.890;5.930;2022-12-29T01:29:04;6.32;;;4.25;;
49840;SDS011;35738;49.890;5.930;2022-12-29T01:31:30;7.22;;;4.28;;
49840;SDS011;35738;49.890;5.930;2022-12-29T01:33:57;5.95;;;4.20;;
49840;SDS011;35738;49.890;5.930;2022-12-29T01:36:24;6.15;;;3.78;;
49840;SDS011;35738;49.890;5.930;2022-12-29T01:38:51;9.23;;;4.57;;
49840;SDS011;35738;49.890;5.930;2022-12-29T01:41:18;6.45;;;3.88;;
49840;SDS011;35738;49.890;5.930;2022-12-29T01:49:07;3.55;;;2.95;;
49840;SDS011;35738;49.890;5.930;2022-12-29T01:51:40;3.45;;;2.80;;
49840;SDS011;35738;49.890;5.930;2022-12-29T01:54:19;3.53;;;3.08;;
49840;SDS011;35738;49.890;5.930;2022-12-29T01:56:55;5.15;;;2.90;;
49840;SDS011;35738;49.890;5.930;2022-12-29T01:59:27;3.00;;;2.58;;
49840;SDS011;35738;49.890;5.930;2022-12-29T02:01:56;2.78;;;2.50;;
49840;SDS011;35738;49.890;5.930;2022-12-29T02:04:23;3.60;;;2.63;;
49840;SDS011;35738;49.890;5.930;2022-12-29T02:06:53;3.70;;;2.80;;
49840;SDS011;35738;49.890;5.930;2022-12-29T02:09:27;5.47;;;3.33;;
49840;SDS011;35738;49.890;5.930;2022-12-29T02:11:55;6.32;;;3.50;;
49840;SDS011;35738;49.890;5.930;2022-12-29T02:14:22;4.32;;;3.17;;
49840;SDS011;35738;49.890;5.930;2022-12-29T02:33:44;4.88;;;3.85;;
49840;SDS011;35738;49.890;5.930;2022-12-29T02:39:12;4.57;;;3.65;;
49840;SDS011;35738;49.890;5.930;2022-12-29T02:44:24;7.10;;;3.90;;
49840;SDS011;35738;49.890;5.930;2022-12-29T02:55:37;9.85;;;3.92;;
49840;SDS011;35738;49.890;5.930;2022-12-29T02:58:17;11.32;;;4.00;;
49840;SDS011;35738;49.890;5.930;2022-12-29T03:03:41;8.23;;;4.35;;
49840;SDS011;35738;49.890;5.930;2022-12-29T03:17:32;7.88;;;4.00;;
49840;SDS011;35738;49.890;5.930;2022-12-29T03:20:07;5.85;;;3.60;;
49840;SDS011;35738;49.890;5.930;2022-12-29T03:22:38;9.10;;;4.00;;
49840;SDS011;35738;49.890;5.930;2022-12-29T03:25:14;6.15;;;3.55;;
49840;SDS011;35738;49.890;5.930;2022-12-29T03:28:01;6.05;;;3.70;;
49840;SDS011;35738;49.890;5.930;2022-12-29T03:30:31;6.25;;;3.72;;
49840;SDS011;35738;49.890;5.930;2022-12-29T03:33:01;4.88;;;3.80;;
49840;SDS011;35738;49.890;5.930;2022-12-29T03:35:32;7.00;;;3.90;;
49840;SDS011;35738;49.890;5.930;2022-12-29T03:40:28;6.72;;;3.90;;
49840;SDS011;35738;49.890;5.930;2022-12-29T03:42:58;7.85;;;3.72;;
49840;SDS011;35738;49.890;5.930;2022-12-29T03:45:25;6.90;;;3.60;;
49840;SDS011;35738;49.890;5.930;2022-12-29T03:47:52;7.20;;;3.72;;
49840;SDS011;35738;49.890;5.930;2022-12-29T03:50:19;7.82;;;3.30;;
49840;SDS011;35738;49.890;5.930;2022-12-29T03:52:46;6.43;;;3.38;;
49840;SDS011;35738;49.890;5.930;2022-12-29T03:55:13;3.55;;;2.97;;
49840;SDS011;35738;49.890;5.930;2022-12-29T03:57:39;10.23;;;3.63;;
49840;SDS011;35738;49.890;5.930;2022-12-29T04:00:06;6.70;;;3.20;;
49840;SDS011;35738;49.890;5.930;2022-12-29T04:02:33;5.63;;;3.20;;
49840;SDS011;35738;49.890;5.930;2022-12-29T04:05:00;8.18;;;3.20;;
49840;SDS011;35738;49.890;5.930;2022-12-29T04:07:27;2.72;;;2.53;;
49840;SDS011;35738;49.890;5.930;2022-12-29T04:09:53;8.07;;;2.75;;
49840;SDS011;35738;49.890;5.930;2022-12-29T04:12:20;5.38;;;2.80;;
49840;SDS011;35738;49.890;5.930;2022-12-29T04:14:46;3.95;;;2.70;;
49840;SDS011;35738;49.890;5.930;2022-12-29T04:17:13;5.13;;;2.67;;
49840;SDS011;35738;49.890;5.930;2022-12-29T04:19:39;5.45;;;2.70;;
49840;SDS011;35738;49.890;5.930;2022-12-29T04:22:06;3.65;;;2.50;;
49840;SDS011;35738;49.890;5.930;2022-12-29T04:24:33;3.78;;;2.33;;
49840;SDS011;35738;49.890;5.930;2022-12-29T04:26:59;5.40;;;2.63;;
49840;SDS011;35738;49.890;5.930;2022-12-29T04:29:26;6.95;;;2.70;;
49840;SDS011;35738;49.890;5.930;2022-12-29T04:31:53;4.65;;;2.30;;
49840;SDS011;35738;49.890;5.930;2022-12-29T04:34:19;5.28;;;2.40;;
49840;SDS011;35738;49.890;5.930;2022-12-29T04:36:47;4.32;;;2.00;;
49840;SDS011;35738;49.890;5.930;2022-12-29T04:39:14;2.88;;;2.45;;
49840;SDS011;35738;49.890;5.930;2022-12-29T04:41:40;3.65;;;2.03;;
49840;SDS011;35738;49.890;5.930;2022-12-29T04:44:07;4.25;;;2.10;;
49840;SDS011;35738;49.890;5.930;2022-12-29T04:46:33;4.40;;;2.08;;
49840;SDS011;35738;49.890;5.930;2022-12-29T04:49:00;4.05;;;2.40;;
49840;SDS011;35738;49.890;5.930;2022-12-29T04:51:30;4.85;;;2.33;;
49840;SDS011;35738;49.890;5.930;2022-12-29T04:53:57;3.53;;;2.30;;
49840;SDS011;35738;49.890;5.930;2022-12-29T04:56:23;3.13;;;2.28;;
49840;SDS011;35738;49.890;5.930;2022-12-29T04:58:50;8.27;;;2.40;;
49840;SDS011;35738;49.890;5.930;2022-12-29T05:01:16;3.92;;;2.17;;
49840;SDS011;35738;49.890;5.930;2022-12-29T05:03:43;4.80;;;2.30;;
49840;SDS011;35738;49.890;5.930;2022-12-29T05:06:10;4.82;;;2.20;;
49840;SDS011;35738;49.890;5.930;2022-12-29T05:08:36;4.05;;;2.30;;
49840;SDS011;35738;49.890;5.930;2022-12-29T05:11:03;6.63;;;2.10;;
49840;SDS011;35738;49.890;5.930;2022-12-29T05:13:30;3.63;;;2.00;;
49840;SDS011;35738;49.890;5.930;2022-12-29T05:15:57;2.30;;;1.70;;
49840;SDS011;35738;49.890;5.930;2022-12-29T05:18:23;3.58;;;1.92;;
49840;SDS011;35738;49.890;5.930;2022-12-29T05:20:50;3.53;;;1.80;;
49840;SDS011;35738;49.890;5.930;2022-12-29T05:23:16;2.25;;;1.92;;
49840;SDS011;35738;49.890;5.930;2022-12-29T05:25:44;2.22;;;1.60;;
49840;SDS011;35738;49.890;5.930;2022-12-29T05:28:12;4.03;;;1.48;;
49840;SDS011;35738;49.890;5.930;2022-12-29T05:30:39;1.60;;;1.50;;
49840;SDS011;35738;49.890;5.930;2022-12-29T05:33:06;2.13;;;1.70;;
49840;SDS011;35738;49.890;5.930;2022-12-29T05:35:33;1.52;;;1.50;;
49840;SDS011;35738;49.890;5.930;2022-12-29T05:37:59;2.42;;;1.30;;
49840;SDS011;35738;49.890;5.930;2022-12-29T05:40:26;3.67;;;1.45;;
49840;SDS011;35738;49.890;5.930;2022-12-29T05:42:52;1.08;;;1.08;;
49840;SDS011;35738;49.890;5.930;2022-12-29T05:45:19;1.15;;;1.08;;
49840;SDS011;35738;49.890;5.930;2022-12-29T05:47:46;2.28;;;0.90;;
49840;SDS011;35738;49.890;5.930;2022-12-29T05:50:12;0.60;;;0.60;;
49840;SDS011;35738;49.890;5.930;2022-12-29T05:52:39;0.55;;;0.43;;
49840;SDS011;35738;49.890;5.930;2022-12-29T05:55:06;1.45;;;0.50;;
49840;SDS011;35738;49.890;5.930;2022-12-29T05:57:33;2.25;;;0.40;;
49840;SDS011;35738;49.890;5.930;2022-12-29T05:59:59;0.40;;;0.40;;
49840;SDS011;35738;49.890;5.930;2022-12-29T06:02:26;0.50;;;0.50;;
49840;SDS011;35738;49.890;5.930;2022-12-29T06:04:53;0.30;;;0.30;;
49840;SDS011;35738;49.890;5.930;2022-12-29T06:07:19;0.35;;;0.35;;
49840;SDS011;35738;49.890;5.930;2022-12-29T06:09:46;0.28;;;0.28;;
49840;SDS011;35738;49.890;5.930;2022-12-29T06:12:12;0.93;;;0.50;;
49840;SDS011;35738;49.890;5.930;2022-12-29T06:14:39;2.30;;;0.63;;
49840;SDS011;35738;49.890;5.930;2022-12-29T06:17:06;0.82;;;0.32;;
49840;SDS011;35738;49.890;5.930;2022-12-29T06:19:32;0.40;;;0.30;;
49840;SDS011;35738;49.890;5.930;2022-12-29T06:21:59;1.75;;;0.40;;
49840;SDS011;35738;49.890;5.930;2022-12-29T06:24:25;2.83;;;0.30;;
49840;SDS011;35738;49.890;5.930;2022-12-29T06:26:52;1.60;;;0.40;;
49840;SDS011;35738;49.890;5.930;2022-12-29T06:29:19;0.93;;;0.40;;
49840;SDS011;35738;49.890;5.930;2022-12-29T06:31:46;0.82;;;0.30;;
49840;SDS011;35738;49.890;5.930;2022-12-29T06:34:15;0.30;;;0.30;;
49840;SDS011;35738;49.890;5.930;2022-12-29T06:36:42;2.38;;;0.40;;
49840;SDS011;35738;49.890;5.930;2022-12-29T06:39:09;1.40;;;0.50;;
49840;SDS011;35738;49.890;5.930;2022-12-29T06:41:36;1.27;;;0.65;;
49840;SDS011;35738;49.890;5.930;2022-12-29T06:44:04;1.48;;;0.50;;
49840;SDS011;35738;49.890;5.930;2022-12-29T06:46:30;1.75;;;0.50;;
49840;SDS011;35738;49.890;5.930;2022-12-29T06:48:57;2.15;;;0.75;;
49840;SDS011;35738;49.890;5.930;2022-12-29T06:51:24;1.30;;;0.65;;
49840;SDS011;35738;49.890;5.930;2022-12-29T06:53:50;2.50;;;0.60;;
49840;SDS011;35738;49.890;5.930;2022-12-29T06:56:17;2.80;;;0.60;;
49840;SDS011;35738;49.890;5.930;2022-12-29T06:58:43;1.95;;;0.55;;
49840;SDS011;35738;49.890;5.930;2022-12-29T07:01:10;2.17;;;0.80;;
49840;SDS011;35738;49.890;5.930;2022-12-29T07:03:37;5.00;;;0.80;;
49840;SDS011;35738;49.890;5.930;2022-12-29T07:06:03;0.90;;;0.90;;
49840;SDS011;35738;49.890;5.930;2022-12-29T07:08:30;3.58;;;0.82;;
49840;SDS011;35738;49.890;5.930;2022-12-29T07:10:57;3.20;;;1.00;;
49840;SDS011;35738;49.890;5.930;2022-12-29T07:13:23;1.92;;;0.60;;
49840;SDS011;35738;49.890;5.930;2022-12-29T07:15:50;3.10;;;1.27;;
49840;SDS011;35738;49.890;5.930;2022-12-29T07:18:16;1.55;;;0.60;;
49840;SDS011;35738;49.890;5.930;2022-12-29T07:20:43;2.60;;;0.70;;
49840;SDS011;35738;49.890;5.930;2022-12-29T07:23:11;2.60;;;0.75;;
49840;SDS011;35738;49.890;5.930;2022-12-29T07:25:37;5.07;;;0.77;;
49840;SDS011;35738;49.890;5.930;2022-12-29T07:28:06;1.83;;;0.70;;
49840;SDS011;35738;49.890;5.930;2022-12-29T07:30:33;2.80;;;1.00;;
49840;SDS011;35738;49.890;5.930;2022-12-29T07:33:00;2.28;;;0.77;;
49840;SDS011;35738;49.890;5.930;2022-12-29T07:35:26;2.50;;;0.63;;
49840;SDS011;35738;49.890;5.930;2022-12-29T07:37:53;3.50;;;0.50;;
49840;SDS011;35738;49.890;5.930;2022-12-29T07:40:19;4.53;;;1.00;;
49840;SDS011;35738;49.890;5.930;2022-12-29T07:42:46;3.83;;;0.95;;
49840;SDS011;35738;49.890;5.930;2022-12-29T07:45:13;3.20;;;0.80;;
49840;SDS011;35738;49.890;5.930;2022-12-29T07:47:39;3.13;;;0.80;;
49840;SDS011;35738;49.890;5.930;2022-12-29T07:50:06;3.40;;;0.85;;
49840;SDS011;35738;49.890;5.930;2022-12-29T07:52:33;2.05;;;0.82;;
49840;SDS011;35738;49.890;5.930;2022-12-29T07:54:59;3.13;;;0.90;;
49840;SDS011;35738;49.890;5.930;2022-12-29T07:57:26;2.80;;;0.85;;
49840;SDS011;35738;49.890;5.930;2022-12-29T07:59:57;3.65;;;1.27;;
49840;SDS011;35738;49.890;5.930;2022-12-29T08:02:24;3.10;;;0.95;;
49840;SDS011;35738;49.890;5.930;2022-12-29T08:04:52;4.97;;;1.02;;
49840;SDS011;35738;49.890;5.930;2022-12-29T08:07:19;5.72;;;1.10;;
49840;SDS011;35738;49.890;5.930;2022-12-29T08:09:46;4.50;;;0.98;;
49840;SDS011;35738;49.890;5.930;2022-12-29T08:12:12;3.80;;;0.90;;
49840;SDS011;35738;49.890;5.930;2022-12-29T08:14:39;3.17;;;1.10;;
49840;SDS011;35738;49.890;5.930;2022-12-29T08:17:05;2.38;;;0.77;;
49840;SDS011;35738;49.890;5.930;2022-12-29T08:19:32;1.92;;;0.63;;
49840;SDS011;35738;49.890;5.930;2022-12-29T08:21:59;4.68;;;1.00;;
49840;SDS011;35738;49.890;5.930;2022-12-29T08:24:25;1.02;;;0.77;;
49840;SDS011;35738;49.890;5.930;2022-12-29T08:26:52;1.00;;;0.70;;
49840;SDS011;35738;49.890;5.930;2022-12-29T08:29:19;5.13;;;1.05;;
49840;SDS011;35738;49.890;5.930;2022-12-29T08:31:47;5.13;;;1.00;;
49840;SDS011;35738;49.890;5.930;2022-12-29T08:34:14;4.07;;;1.00;;
49840;SDS011;35738;49.890;5.930;2022-12-29T08:36:40;1.20;;;0.80;;
49840;SDS011;35738;49.890;5.930;2022-12-29T08:39:07;4.18;;;1.15;;
49840;SDS011;35738;49.890;5.930;2022-12-29T08:41:34;3.55;;;0.90;;
49840;SDS011;35738;49.890;5.930;2022-12-29T08:44:01;3.92;;;0.80;;
49840;SDS011;35738;49.890;5.930;2022-12-29T08:46:27;3.97;;;1.00;;
49840;SDS011;35738;49.890;5.930;2022-12-29T08:48:54;4.75;;;1.00;;
49840;SDS011;35738;49.890;5.930;2022-12-29T08:51:24;1.98;;;1.00;;
49840;SDS011;35738;49.890;5.930;2022-12-29T08:53:51;4.95;;;1.05;;
49840;SDS011;35738;49.890;5.930;2022-12-29T08:56:18;2.97;;;0.90;;
49840;SDS011;35738;49.890;5.930;2022-12-29T08:58:45;4.85;;;1.10;;
49840;SDS011;35738;49.890;5.930;2022-12-29T09:01:12;4.30;;;0.98;;
49840;SDS011;35738;49.890;5.930;2022-12-29T09:03:39;5.60;;;1.05;;
49840;SDS011;35738;49.890;5.930;2022-12-29T09:06:25;3.67;;;0.82;;
49840;SDS011;35738;49.890;5.930;2022-12-29T09:08:53;3.53;;;0.90;;
49840;SDS011;35738;49.890;5.930;2022-12-29T09:11:22;3.78;;;1.30;;
49840;SDS011;35738;49.890;5.930;2022-12-29T09:13:50;6.22;;;1.25;;
49840;SDS011;35738;49.890;5.930;2022-12-29T09:16:18;4.70;;;1.00;;
49840;SDS011;35738;49.890;5.930;2022-12-29T09:18:47;5.35;;;1.00;;
49840;SDS011;35738;49.890;5.930;2022-12-29T09:21:14;4.35;;;1.00;;
49840;SDS011;35738;49.890;5.930;2022-12-29T09:23:41;5.82;;;1.02;;
49840;SDS011;35738;49.890;5.930;2022-12-29T09:26:07;6.18;;;1.60;;
49840;SDS011;35738;49.890;5.930;2022-12-29T09:28:35;6.57;;;1.00;;
49840;SDS011;35738;49.890;5.930;2022-12-29T09:31:02;6.47;;;1.40;;
49840;SDS011;35738;49.890;5.930;2022-12-29T09:33:29;3.65;;;1.15;;
49840;SDS011;35738;49.890;5.930;2022-12-29T09:35:56;6.95;;;1.30;;
49840;SDS011;35738;49.890;5.930;2022-12-29T09:38:24;6.65;;;1.30;;
49840;SDS011;35738;49.890;5.930;2022-12-29T09:46:22;3.70;;;1.02;;
49840;SDS011;35738;49.890;5.930;2022-12-29T09:49:13;5.18;;;1.10;;
49840;SDS011;35738;49.890;5.930;2022-12-29T09:52:08;3.85;;;1.25;;
49840;SDS011;35738;49.890;5.930;2022-12-29T09:54:43;7.47;;;1.40;;
49840;SDS011;35738;49.890;5.930;2022-12-29T09:57:29;6.85;;;1.38;;
49840;SDS011;35738;49.890;5.930;2022-12-29T10:00:20;5.47;;;1.27;;
49840;SDS011;35738;49.890;5.930;2022-12-29T10:02:54;4.93;;;1.38;;
49840;SDS011;35738;49.890;5.930;2022-12-29T10:05:36;8.50;;;1.60;;
49840;SDS011;35738;49.890;5.930;2022-12-29T10:08:11;7.28;;;1.42;;
49840;SDS011;35738;49.890;5.930;2022-12-29T10:10:46;10.13;;;1.50;;
49840;SDS011;35738;49.890;5.930;2022-12-29T10:16:20;8.00;;;1.67;;
49840;SDS011;35738;49.890;5.930;2022-12-29T10:24:52;7.38;;;1.40;;
49840;SDS011;35738;49.890;5.930;2022-12-29T10:27:21;6.57;;;1.40;;
49840;SDS011;35738;49.890;5.930;2022-12-29T10:29:48;9.85;;;1.60;;
49840;SDS011;35738;49.890;5.930;2022-12-29T10:32:32;6.70;;;1.23;;
49840;SDS011;35738;49.890;5.930;2022-12-29T10:35:21;6.57;;;1.33;;
49840;SDS011;35738;49.890;5.930;2022-12-29T10:38:11;6.05;;;1.40;;
49840;SDS011;35738;49.890;5.930;2022-12-29T10:45:56;6.85;;;1.80;;
49840;SDS011;35738;49.890;5.930;2022-12-29T10:48:27;10.48;;;2.03;;
49840;SDS011;35738;49.890;5.930;2022-12-29T10:50:58;5.38;;;1.00;;
49840;SDS011;35738;49.890;5.930;2022-12-29T10:53:34;10.00;;;1.38;;
49840;SDS011;35738;49.890;5.930;2022-12-29T10:56:20;6.82;;;1.38;;
49840;SDS011;35738;49.890;5.930;2022-12-29T10:58:54;8.45;;;1.65;;
49840;SDS011;35738;49.890;5.930;2022-12-29T11:01:24;6.10;;;1.20;;
49840;SDS011;35738;49.890;5.930;2022-12-29T11:04:02;6.03;;;1.20;;
49840;SDS011;35738;49.890;5.930;2022-12-29T11:06:38;5.65;;;1.30;;
49840;SDS011;35738;49.890;5.930;2022-12-29T11:09:09;6.10;;;1.50;;
49840;SDS011;35738;49.890;5.930;2022-12-29T11:11:41;5.53;;;1.45;;
49840;SDS011;35738;49.890;5.930;2022-12-29T11:14:12;6.57;;;1.63;;
49840;SDS011;35738;49.890;5.930;2022-12-29T11:16:40;7.97;;;1.70;;
49840;SDS011;35738;49.890;5.930;2022-12-29T11:19:19;7.78;;;1.52;;
49840;SDS011;35738;49.890;5.930;2022-12-29T11:21:47;8.10;;;1.40;;
49840;SDS011;35738;49.890;5.930;2022-12-29T11:24:24;10.02;;;1.60;;
49840;SDS011;35738;49.890;5.930;2022-12-29T11:26:55;5.68;;;1.33;;
49840;SDS011;35738;49.890;5.930;2022-12-29T11:29:39;5.68;;;1.23;;
49840;SDS011;35738;49.890;5.930;2022-12-29T11:32:26;4.18;;;1.20;;
49840;SDS011;35738;49.890;5.930;2022-12-29T11:34:56;5.78;;;1.38;;
49840;SDS011;35738;49.890;5.930;2022-12-29T11:37:28;7.07;;;1.50;;
49840;SDS011;35738;49.890;5.930;2022-12-29T11:40:02;6.07;;;1.50;;
49840;SDS011;35738;49.890;5.930;2022-12-29T11:42:41;8.48;;;1.63;;
49840;SDS011;35738;49.890;5.930;2022-12-29T11:45:16;6.05;;;1.27;;
49840;SDS011;35738;49.890;5.930;2022-12-29T11:47:45;4.85;;;1.27;;
49840;SDS011;35738;49.890;5.930;2022-12-29T11:50:22;9.75;;;1.85;;
49840;SDS011;35738;49.890;5.930;2022-12-29T11:53:01;5.82;;;1.60;;
49840;SDS011;35738;49.890;5.930;2022-12-29T11:55:31;7.45;;;1.40;;
49840;SDS011;35738;49.890;5.930;2022-12-29T11:57:58;7.40;;;1.45;;
49840;SDS011;35738;49.890;5.930;2022-12-29T12:00:28;6.18;;;1.27;;
49840;SDS011;35738;49.890;5.930;2022-12-29T12:03:16;6.82;;;1.52;;
49840;SDS011;35738;49.890;5.930;2022-12-29T12:05:56;9.00;;;1.50;;
49840;SDS011;35738;49.890;5.930;2022-12-29T12:08:31;9.35;;;1.73;;
49840;SDS011;35738;49.890;5.930;2022-12-29T12:11:13;7.03;;;1.33;;
49840;SDS011;35738;49.890;5.930;2022-12-29T12:16:31;9.57;;;1.70;;
49840;SDS011;35738;49.890;5.930;2022-12-29T12:21:40;7.93;;;1.30;;
49840;SDS011;35738;49.890;5.930;2022-12-29T12:27:01;6.03;;;1.30;;
49840;SDS011;35738;49.890;5.930;2022-12-29T12:32:41;8.32;;;1.60;;
49840;SDS011;35738;49.890;5.930;2022-12-29T12:35:15;4.57;;;1.23;;
49840;SDS011;35738;49.890;5.930;2022-12-29T13:00:00;6.30;;;1.35;;
49840;SDS011;35738;49.890;5.930;2022-12-29T13:05:24;6.25;;;1.60;;
49840;SDS011;35738;49.890;5.930;2022-12-29T13:10:47;8.80;;;1.60;;
49840;SDS011;35738;49.890;5.930;2022-12-29T13:19:01;10.07;;;1.63;;
49840;SDS011;35738;49.890;5.930;2022-12-29T13:27:19;4.40;;;1.15;;
49840;SDS011;35738;49.890;5.930;2022-12-29T13:30:12;7.80;;;1.48;;
49840;SDS011;35738;49.890;5.930;2022-12-29T13:38:45;8.73;;;1.73;;
49840;SDS011;35738;49.890;5.930;2022-12-29T13:41:20;9.48;;;1.80;;
49840;SDS011;35738;49.890;5.930;2022-12-29T13:44:03;8.35;;;2.00;;
49840;SDS011;35738;49.890;5.930;2022-12-29T13:46:33;9.55;;;1.70;;
49840;SDS011;35738;49.890;5.930;2022-12-29T13:49:12;10.93;;;1.70;;
49840;SDS011;35738;49.890;5.930;2022-12-29T13:52:10;12.00;;;2.00;;
49840;SDS011;35738;49.890;5.930;2022-12-29T13:57:35;7.00;;;1.85;;
49840;SDS011;35738;49.890;5.930;2022-12-29T14:00:04;8.10;;;1.70;;
49840;SDS011;35738;49.890;5.930;2022-12-29T14:02:42;11.38;;;1.90;;
49840;SDS011;35738;49.890;5.930;2022-12-29T14:07:49;7.57;;;2.10;;
49840;SDS011;35738;49.890;5.930;2022-12-29T14:10:29;8.55;;;1.65;;
49840;SDS011;35738;49.890;5.930;2022-12-29T14:15:44;9.05;;;1.80;;
49840;SDS011;35738;49.890;5.930;2022-12-29T14:18:18;13.82;;;1.80;;
49840;SDS011;35738;49.890;5.930;2022-12-29T14:23:35;5.38;;;1.58;;
49840;SDS011;35738;49.890;5.930;2022-12-29T14:28:33;11.05;;;1.90;;
49840;SDS011;35738;49.890;5.930;2022-12-29T14:31:01;13.73;;;1.98;;
49840;SDS011;35738;49.890;5.930;2022-12-29T14:33:30;8.35;;;1.80;;
49840;SDS011;35738;49.890;5.930;2022-12-29T14:38:46;7.78;;;1.58;;
49840;SDS011;35738;49.890;5.930;2022-12-29T14:41:32;8.88;;;2.05;;
49840;SDS011;35738;49.890;5.930;2022-12-29T14:46:46;5.07;;;1.50;;
49840;SDS011;35738;49.890;5.930;2022-12-29T14:49:18;9.73;;;1.88;;
49840;SDS011;35738;49.890;5.930;2022-12-29T14:51:47;6.88;;;1.70;;
49840;SDS011;35738;49.890;5.930;2022-12-29T14:54:34;9.65;;;2.25;;
49840;SDS011;35738;49.890;5.930;2022-12-29T14:57:13;9.38;;;1.67;;
49840;SDS011;35738;49.890;5.930;2022-12-29T14:59:45;9.65;;;1.90;;
49840;SDS011;35738;49.890;5.930;2022-12-29T15:02:16;31.98;;;9.55;;
49840;SDS011;35738;49.890;5.930;2022-12-29T15:04:46;31.23;;;8.90;;
49840;SDS011;35738;49.890;5.930;2022-12-29T15:07:13;48.78;;;13.60;;
49840;SDS011;35738;49.890;5.930;2022-12-29T15:09:45;10.98;;;2.70;;
49840;SDS011;35738;49.890;5.930;2022-12-29T15:15:02;9.38;;;2.50;;
49840;SDS011;35738;49.890;5.930;2022-12-29T15:17:44;12.20;;;2.63;;
49840;SDS011;35738;49.890;5.930;2022-12-29T15:20:22;10.60;;;2.20;;
49840;SDS011;35738;49.890;5.930;2022-12-29T15:22:50;10.48;;;2.30;;
49840;SDS011;35738;49.890;5.930;2022-12-29T15:25:20;12.18;;;3.65;;
49840;SDS011;35738;49.890;5.930;2022-12-29T15:27:50;14.25;;;5.05;;
49840;SDS011;35738;49.890;5.930;2022-12-29T15:30:19;13.40;;;3.92;;
49840;SDS011;35738;49.890;5.930;2022-12-29T15:32:47;12.05;;;2.40;;
49840;SDS011;35738;49.890;5.930;2022-12-29T15:35:26;11.25;;;2.00;;
49840;SDS011;35738;49.890;5.930;2022-12-29T15:37:55;10.48;;;2.13;;
49840;SDS011;35738;49.890;5.930;2022-12-29T15:40:27;9.43;;;2.17;;
49840;SDS011;35738;49.890;5.930;2022-12-29T15:45:34;11.77;;;2.45;;
49840;SDS011;35738;49.890;5.930;2022-12-29T15:48:02;17.63;;;2.05;;
49840;SDS011;35738;49.890;5.930;2022-12-29T15:50:34;7.70;;;1.83;;
49840;SDS011;35738;49.890;5.930;2022-12-29T15:53:03;9.02;;;1.90;;
49840;SDS011;35738;49.890;5.930;2022-12-29T15:55:37;7.18;;;2.25;;
49840;SDS011;35738;49.890;5.930;2022-12-29T15:58:18;11.82;;;2.35;;
49840;SDS011;35738;49.890;5.930;2022-12-29T16:00:47;10.73;;;2.42;;
49840;SDS011;35738;49.890;5.930;2022-12-29T16:03:20;10.55;;;2.13;;
49840;SDS011;35738;49.890;5.930;2022-12-29T16:05:50;13.13;;;2.78;;
49840;SDS011;35738;49.890;5.930;2022-12-29T16:08:24;16.95;;;2.15;;
49840;SDS011;35738;49.890;5.930;2022-12-29T16:11:26;11.98;;;2.00;;
49840;SDS011;35738;49.890;5.930;2022-12-29T16:13:54;18.50;;;2.63;;
49840;SDS011;35738;49.890;5.930;2022-12-29T16:19:14;9.13;;;1.80;;
49840;SDS011;35738;49.890;5.930;2022-12-29T16:21:45;15.05;;;2.15;;
49840;SDS011;35738;49.890;5.930;2022-12-29T16:24:13;11.25;;;2.38;;
49840;SDS011;35738;49.890;5.930;2022-12-29T16:29:32;10.85;;;2.00;;
49840;SDS011;35738;49.890;5.930;2022-12-29T16:32:00;7.65;;;1.90;;
49840;SDS011;35738;49.890;5.930;2022-12-29T16:36:59;11.80;;;2.20;;
49840;SDS011;35738;49.890;5.930;2022-12-29T16:39:38;10.38;;;1.83;;
49840;SDS011;35738;49.890;5.930;2022-12-29T16:47:47;13.93;;;2.13;;
49840;SDS011;35738;49.890;5.930;2022-12-29T16:50:35;6.97;;;1.90;;
49840;SDS011;35738;49.890;5.930;2022-12-29T16:53:04;8.48;;;2.03;;
49840;SDS011;35738;49.890;5.930;2022-12-29T16:55:33;11.65;;;2.08;;
49840;SDS011;35738;49.890;5.930;2022-12-29T16:57:59;8.98;;;2.30;;
49840;SDS011;35738;49.890;5.930;2022-12-29T17:00:27;11.15;;;2.20;;
49840;SDS011;35738;49.890;5.930;2022-12-29T17:03:00;14.35;;;2.05;;
49840;SDS011;35738;49.890;5.930;2022-12-29T17:05:29;8.82;;;1.85;;
49840;SDS011;35738;49.890;5.930;2022-12-29T17:07:56;11.85;;;2.15;;
49840;SDS011;35738;49.890;5.930;2022-12-29T17:10:27;16.02;;;2.47;;
49840;SDS011;35738;49.890;5.930;2022-12-29T17:13:13;11.98;;;2.15;;
49840;SDS011;35738;49.890;5.930;2022-12-29T17:15:40;10.25;;;1.95;;
49840;SDS011;35738;49.890;5.930;2022-12-29T17:18:06;12.88;;;2.53;;
49840;SDS011;35738;49.890;5.930;2022-12-29T17:20:39;12.68;;;2.30;;
49840;SDS011;35738;49.890;5.930;2022-12-29T17:23:11;15.13;;;2.25;;
49840;SDS011;35738;49.890;5.930;2022-12-29T17:25:49;10.65;;;2.00;;
49840;SDS011;35738;49.890;5.930;2022-12-29T17:28:20;10.02;;;2.20;;
49840;SDS011;35738;49.890;5.930;2022-12-29T17:30:51;7.82;;;2.08;;
49840;SDS011;35738;49.890;5.930;2022-12-29T17:33:20;8.23;;;1.80;;
49840;SDS011;35738;49.890;5.930;2022-12-29T17:35:46;9.77;;;1.95;;
49840;SDS011;35738;49.890;5.930;2022-12-29T17:38:22;12.20;;;2.10;;
49840;SDS011;35738;49.890;5.930;2022-12-29T17:40:57;13.90;;;2.20;;
49840;SDS011;35738;49.890;5.930;2022-12-29T17:43:24;13.38;;;2.30;;
49840;SDS011;35738;49.890;5.930;2022-12-29T17:45:59;11.32;;;2.00;;
49840;SDS011;35738;49.890;5.930;2022-12-29T17:48:26;15.77;;;1.92;;
49840;SDS011;35738;49.890;5.930;2022-12-29T17:50:53;15.80;;;2.22;;
49840;SDS011;35738;49.890;5.930;2022-12-29T17:53:23;11.02;;;1.88;;
49840;SDS011;35738;49.890;5.930;2022-12-29T17:55:52;13.30;;;1.90;;
49840;SDS011;35738;49.890;5.930;2022-12-29T17:58:28;20.17;;;2.30;;